createdAt,value
2023-04-03T00:08:38.229Z,3.63
2023-04-03T00:38:38.259Z,3.25
2023-04-03T01:08:38.239Z,2.81
2023-04-03T01:38:38.245Z,2.31
2023-04-03T02:08:38.244Z,1.88
2023-04-03T02:38:38.252Z,2.19
2023-04-03T03:08:38.239Z,2.31
2023-04-03T03:38:38.250Z,2.19
2023-04-03T04:08:38.293Z,1.94
2023-04-03T04:38:38.265Z,1.63
2023-04-03T05:08:38.271Z,1.38
2023-04-03T05:38:38.367Z,1.69
2023-04-03T06:08:38.275Z,2.69
2023-04-03T06:38:38.276Z,2.75
2023-04-03T07:08:38.287Z,3.31
2023-04-03T07:38:38.312Z,3.69
2023-04-03T08:08:38.304Z,3.94
2023-04-03T08:38:38.341Z,4.06
2023-04-03T09:08:38.298Z,3.88
2023-04-03T09:38:38.299Z,4.19
2023-04-03T10:08:38.310Z,4.13
2023-04-03T10:38:38.330Z,5.38
2023-04-03T11:08:38.374Z,6.13
2023-04-03T11:38:38.335Z,7.06
2023-04-03T12:08:38.339Z,6.56
2023-04-03T12:38:38.339Z,7.56
2023-04-03T13:08:38.354Z,8.81
2023-04-03T13:38:38.360Z,8.25
2023-04-03T14:08:43.516Z,7.88
2023-04-03T14:38:38.363Z,9.38
2023-04-03T15:08:38.373Z,8.38
2023-04-03T15:38:38.372Z,7.06
2023-04-03T16:08:38.379Z,7.38
2023-04-03T16:38:38.378Z,6.38
2023-04-03T17:08:38.373Z,5.44
2023-04-03T17:38:38.393Z,4.69
2023-04-03T18:08:38.384Z,3.63
2023-04-03T18:38:38.404Z,3.25
2023-04-03T19:08:38.404Z,2.75
2023-04-03T19:38:38.416Z,2.31
2023-04-03T20:08:38.420Z,1.94
2023-04-03T20:38:38.416Z,1.69
2023-04-03T21:08:38.447Z,1.38
2023-04-03T21:38:38.432Z,1.13
2023-04-03T22:08:38.441Z,0.88
2023-04-03T22:38:38.445Z,0.81
2023-04-03T23:08:38.440Z,0.56
2023-04-03T23:38:38.455Z,1.31
